AAL2073 KEYW-KCLT
Flight info
| Callsign | AAL2073 |
|---|---|
| Flight time | N/A |
| Altitude | 38000 |
| Route | BUFTT1 MATLK Q77 SHRKS PONZE BANKR5 |
| Aircraft | A319/M-SDE3FGHIRWY/LB1 |
Departure
| Time | 2026-04-30 21:53 |
|---|---|
| Airport | Key West International Airport (KEYW) |
Arrival
| Time | N/A |
|---|---|
| Airport | Charlotte Douglas International Airport (KCLT) |
| Time | Latitude | Longitude | Altitude | Speed | Heading |
|---|---|---|---|---|---|
| 2026-04-30 21:32 | 24.55407 | -81.75473 | 21 ft | 0 kts | 270° |
| 2026-04-30 21:47 | 24.55407 | -81.75476 | 22 ft | 1 kts | 270° |
| 2026-04-30 21:48 | 24.55407 | -81.75497 | 19 ft | 4 kts | 270° |
| 2026-04-30 21:48 | 24.55424 | -81.75519 | 20 ft | 5 kts | 353° |
| 2026-04-30 21:48 | 24.55464 | -81.75519 | 20 ft | 6 kts | 1° |
| 2026-04-30 21:48 | 24.55512 | -81.75519 | 20 ft | 7 kts | 359° |
| 2026-04-30 21:49 | 24.55530 | -81.75557 | 20 ft | 7 kts | 269° |
| 2026-04-30 21:49 | 24.55530 | -81.75616 | 20 ft | 9 kts | 269° |
| 2026-04-30 21:49 | 24.55529 | -81.75687 | 20 ft | 10 kts | 269° |
| 2026-04-30 21:49 | 24.55528 | -81.75770 | 20 ft | 12 kts | 269° |
| 2026-04-30 21:50 | 24.55527 | -81.75872 | 18 ft | 15 kts | 269° |
| 2026-04-30 21:50 | 24.55526 | -81.76000 | 14 ft | 19 kts | 269° |
| 2026-04-30 21:50 | 24.55524 | -81.76150 | 13 ft | 20 kts | 269° |
| 2026-04-30 21:50 | 24.55522 | -81.76307 | 13 ft | 21 kts | 269° |
| 2026-04-30 21:51 | 24.55521 | -81.76474 | 12 ft | 23 kts | 269° |
| 2026-04-30 21:51 | 24.55520 | -81.76577 | 12 ft | 10 kts | 269° |
| 2026-04-30 21:51 | 24.55539 | -81.76646 | 13 ft | 9 kts | 308° |
| 2026-04-30 21:51 | 24.55601 | -81.76654 | 14 ft | 6 kts | 1° |
| 2026-04-30 21:52 | 24.55607 | -81.76648 | 14 ft | 1 kts | 51° |
| 2026-04-30 21:52 | 24.55607 | -81.76634 | 14 ft | 3 kts | 89° |
| 2026-04-30 21:52 | 24.55607 | -81.76613 | 14 ft | 17 kts | 89° |
| 2026-04-30 21:52 | 24.55611 | -81.76125 | 14 ft | 108 kts | 89° |
| 2026-04-30 21:53 | 24.55625 | -81.75071 | 269 ft | 150 kts | 90° |
| 2026-04-30 21:53 | 24.55760 | -81.73916 | 969 ft | 157 kts | 64° |
| 2026-04-30 21:53 | 24.56527 | -81.73053 | 1686 ft | 164 kts | 26° |
| 2026-04-30 21:53 | 24.57704 | -81.72788 | 2259 ft | 185 kts | 2° |
| 2026-04-30 21:54 | 24.59075 | -81.72714 | 2783 ft | 209 kts | 1° |
| 2026-04-30 21:54 | 24.60604 | -81.72628 | 3381 ft | 231 kts | 1° |
| 2026-04-30 21:54 | 24.62264 | -81.72527 | 4201 ft | 244 kts | 2° |
| 2026-04-30 21:54 | 24.63962 | -81.72415 | 5212 ft | 249 kts | 2° |
| 2026-04-30 21:55 | 24.65714 | -81.72296 | 6236 ft | 255 kts | 2° |
| 2026-04-30 21:55 | 24.67510 | -81.72171 | 7154 ft | 265 kts | 2° |
| 2026-04-30 21:55 | 24.69425 | -81.72037 | 7992 ft | 281 kts | 3° |
| 2026-04-30 21:55 | 24.71368 | -81.71591 | 9100 ft | 289 kts | 19° |
| 2026-04-30 21:56 | 24.73140 | -81.70552 | 10222 ft | 295 kts | 34° |
| 2026-04-30 21:56 | 24.74664 | -81.68982 | 11127 ft | 311 kts | 44° |
| 2026-04-30 21:56 | 24.76213 | -81.67183 | 11644 ft | 336 kts | 45° |
| 2026-04-30 21:56 | 24.77869 | -81.65245 | 12263 ft | 354 kts | 45° |
| 2026-04-30 21:57 | 24.79574 | -81.63239 | 13123 ft | 363 kts | 45° |
| 2026-04-30 21:57 | 24.81314 | -81.61190 | 14041 ft | 369 kts | 45° |
| 2026-04-30 21:57 | 24.83063 | -81.59136 | 14905 ft | 374 kts | 44° |
| 2026-04-30 21:57 | 24.84885 | -81.57061 | 15734 ft | 378 kts | 43° |
| 2026-04-30 21:58 | 24.86759 | -81.55021 | 16531 ft | 381 kts | 41° |
| 2026-04-30 21:58 | 24.88677 | -81.52981 | 17288 ft | 384 kts | 40° |
| 2026-04-30 21:58 | 24.90615 | -81.50935 | 18015 ft | 388 kts | 40° |
| 2026-04-30 21:58 | 24.92573 | -81.48865 | 18650 ft | 391 kts | 40° |
| 2026-04-30 21:59 | 24.94542 | -81.46770 | 19243 ft | 395 kts | 40° |
| 2026-04-30 21:59 | 24.96518 | -81.44648 | 19836 ft | 398 kts | 41° |
| 2026-04-30 21:59 | 24.98481 | -81.42525 | 20413 ft | 401 kts | 41° |
| 2026-04-30 22:00 | 25.02508 | -81.38157 | 21558 ft | 408 kts | 41° |
| 2026-04-30 22:00 | 25.06573 | -81.33753 | 22621 ft | 414 kts | 41° |
| 2026-04-30 22:00 | 25.08645 | -81.31513 | 23132 ft | 418 kts | 41° |
| 2026-04-30 22:01 | 25.10741 | -81.29250 | 23606 ft | 421 kts | 41° |
| 2026-04-30 22:01 | 25.12844 | -81.26980 | 23981 ft | 425 kts | 41° |
| 2026-04-30 22:01 | 25.14968 | -81.24684 | 24347 ft | 429 kts | 41° |
| 2026-04-30 22:01 | 25.17111 | -81.22362 | 24718 ft | 433 kts | 41° |
| 2026-04-30 22:02 | 25.19239 | -81.20052 | 25086 ft | 436 kts | 41° |
| 2026-04-30 22:02 | 25.21408 | -81.17692 | 25456 ft | 440 kts | 41° |
| 2026-04-30 22:02 | 25.23598 | -81.15308 | 25829 ft | 443 kts | 41° |
| 2026-04-30 22:02 | 25.25801 | -81.12914 | 26205 ft | 446 kts | 41° |
| 2026-04-30 22:03 | 25.28032 | -81.10498 | 26585 ft | 449 kts | 40° |
| 2026-04-30 22:03 | 25.30506 | -81.08404 | 26946 ft | 448 kts | 27° |
| 2026-04-30 22:03 | 25.33367 | -81.07042 | 27310 ft | 445 kts | 12° |
| 2026-04-30 22:03 | 25.36395 | -81.06491 | 27668 ft | 445 kts | 3° |
| 2026-04-30 22:04 | 25.39495 | -81.06144 | 28024 ft | 448 kts | 2° |
| 2026-04-30 22:04 | 25.42580 | -81.05820 | 28371 ft | 451 kts | 2° |
| 2026-04-30 22:04 | 25.48901 | -81.05181 | 29072 ft | 458 kts | 2° |
| 2026-04-30 22:05 | 25.52099 | -81.04849 | 29410 ft | 461 kts | 2° |
| 2026-04-30 22:05 | 25.55276 | -81.04513 | 29745 ft | 464 kts | 2° |
| 2026-04-30 22:05 | 25.58512 | -81.04168 | 30084 ft | 467 kts | 2° |
| 2026-04-30 22:05 | 25.61767 | -81.03823 | 30369 ft | 470 kts | 2° |
| 2026-04-30 22:06 | 25.65024 | -81.03477 | 30690 ft | 471 kts | 2° |
| 2026-04-30 22:06 | 25.71509 | -81.02784 | 31604 ft | 467 kts | 2° |
| 2026-04-30 22:06 | 25.74733 | -81.02436 | 32121 ft | 464 kts | 2° |
| 2026-04-30 22:07 | 25.77942 | -81.02090 | 32630 ft | 461 kts | 2° |
| 2026-04-30 22:07 | 25.81125 | -81.01749 | 33135 ft | 458 kts | 2° |
| 2026-04-30 22:07 | 25.84292 | -81.01411 | 33630 ft | 455 kts | 2° |
| 2026-04-30 22:07 | 25.87443 | -81.01072 | 34110 ft | 452 kts | 2° |
| 2026-04-30 22:08 | 25.90569 | -81.00737 | 34565 ft | 449 kts | 2° |
| 2026-04-30 22:08 | 25.93669 | -81.00406 | 35046 ft | 445 kts | 2° |
| 2026-04-30 22:08 | 25.96740 | -81.00081 | 35526 ft | 442 kts | 2° |
| 2026-04-30 22:08 | 25.99796 | -80.99756 | 36009 ft | 437 kts | 1° |
| 2026-04-30 22:09 | 26.01794 | -80.99542 | 36320 ft | 435 kts | 1° |
| 2026-04-30 22:09 | 26.05774 | -80.99114 | 36910 ft | 430 kts | 2° |
| 2026-04-30 22:09 | 26.07784 | -80.98896 | 37196 ft | 428 kts | 2° |
| 2026-04-30 22:09 | 26.10714 | -80.98580 | 37596 ft | 425 kts | 2° |
| 2026-04-30 22:10 | 26.14626 | -80.98161 | 37915 ft | 426 kts | 1° |
| 2026-04-30 22:10 | 26.16633 | -80.97950 | 37946 ft | 430 kts | 1° |
| 2026-04-30 22:10 | 26.22636 | -80.97316 | 37943 ft | 440 kts | 2° |
| 2026-04-30 22:11 | 26.31710 | -80.96327 | 37936 ft | 434 kts | 1° |
| 2026-04-30 22:12 | 26.37730 | -80.95679 | 37934 ft | 433 kts | 1° |
| 2026-04-30 22:12 | 26.43722 | -80.95041 | 37934 ft | 433 kts | 1° |
| 2026-04-30 22:13 | 26.49734 | -80.94393 | 37934 ft | 433 kts | 1° |
| 2026-04-30 22:13 | 26.55714 | -80.93748 | 37933 ft | 433 kts | 1° |
| 2026-04-30 22:14 | 26.61724 | -80.93096 | 37944 ft | 433 kts | 1° |
| 2026-04-30 22:14 | 26.67690 | -80.92445 | 37940 ft | 433 kts | 1° |
| 2026-04-30 22:15 | 26.73687 | -80.91793 | 37933 ft | 432 kts | 1° |
| 2026-04-30 22:15 | 26.79686 | -80.91147 | 37931 ft | 432 kts | 1° |
| 2026-04-30 22:16 | 26.85650 | -80.90499 | 37922 ft | 433 kts | 1° |
| 2026-04-30 22:17 | 26.97652 | -80.89201 | 37922 ft | 432 kts | 1° |
| 2026-04-30 22:17 | 27.06612 | -80.88227 | 37909 ft | 432 kts | 1° |
| 2026-04-30 22:18 | 27.15591 | -80.87240 | 37893 ft | 432 kts | 1° |
| 2026-04-30 22:19 | 27.24575 | -80.86253 | 37899 ft | 432 kts | 1° |
| 2026-04-30 22:20 | 27.33539 | -80.85790 | 37895 ft | 424 kts | 348° |
| 2026-04-30 22:20 | 27.42231 | -80.87445 | 37894 ft | 423 kts | 347° |
| 2026-04-30 22:21 | 27.48059 | -80.88540 | 37909 ft | 424 kts | 347° |
| 2026-04-30 22:21 | 27.53855 | -80.89626 | 37904 ft | 424 kts | 347° |
| 2026-04-30 22:22 | 27.59698 | -80.90740 | 37905 ft | 424 kts | 347° |
| 2026-04-30 22:22 | 27.65489 | -80.91845 | 37902 ft | 424 kts | 346° |
| 2026-04-30 22:23 | 27.71314 | -80.92951 | 37904 ft | 424 kts | 347° |
| 2026-04-30 22:23 | 27.77158 | -80.94055 | 37918 ft | 424 kts | 346° |
| 2026-04-30 22:24 | 27.82734 | -80.95848 | 37924 ft | 416 kts | 330° |
| 2026-04-30 22:24 | 27.87412 | -80.99624 | 37910 ft | 413 kts | 318° |
| 2026-04-30 22:25 | 27.91803 | -81.03823 | 37901 ft | 413 kts | 319° |
| 2026-04-30 22:25 | 27.96208 | -81.08013 | 37904 ft | 414 kts | 319° |
| 2026-04-30 22:26 | 28.02831 | -81.14287 | 37905 ft | 415 kts | 322° |
| 2026-04-30 22:27 | 28.07921 | -81.17343 | 37907 ft | 418 kts | 333° |
| 2026-04-30 22:27 | 28.15860 | -81.21412 | 37940 ft | 417 kts | 332° |
| 2026-04-30 22:28 | 28.23792 | -81.25500 | 37936 ft | 417 kts | 332° |
| 2026-04-30 22:29 | 28.34332 | -81.30942 | 37917 ft | 416 kts | 332° |
| 2026-04-30 22:31 | 28.52779 | -81.40376 | 37918 ft | 414 kts | 332° |
| 2026-04-30 22:32 | 28.65883 | -81.47092 | 37914 ft | 413 kts | 332° |
| 2026-04-30 22:33 | 28.78959 | -81.53832 | 37934 ft | 412 kts | 331° |
| 2026-04-30 22:35 | 28.92052 | -81.60437 | 37917 ft | 415 kts | 338° |
| 2026-04-30 22:36 | 29.06704 | -81.62196 | 37927 ft | 424 kts | 348° |
| 2026-04-30 22:37 | 29.18521 | -81.63275 | 37921 ft | 424 kts | 348° |
| 2026-04-30 22:38 | 29.30330 | -81.64362 | 37936 ft | 425 kts | 348° |
| 2026-04-30 22:39 | 29.39163 | -81.65172 | 37922 ft | 425 kts | 348° |
| 2026-04-30 22:40 | 29.56851 | -81.66809 | 37930 ft | 426 kts | 347° |
| 2026-04-30 22:41 | 29.71694 | -81.68174 | 37899 ft | 428 kts | 347° |
| 2026-04-30 22:43 | 29.89542 | -81.69832 | 37922 ft | 429 kts | 346° |
| 2026-04-30 22:44 | 30.01391 | -81.70932 | 37894 ft | 428 kts | 346° |
| 2026-04-30 22:45 | 30.19185 | -81.72589 | 37872 ft | 424 kts | 345° |
| 2026-04-30 22:47 | 30.36813 | -81.74242 | 37885 ft | 423 kts | 345° |
| 2026-04-30 22:48 | 30.47585 | -81.75250 | 37840 ft | 423 kts | 345° |
| 2026-04-30 22:49 | 30.65212 | -81.76886 | 37847 ft | 425 kts | 346° |
| 2026-04-30 22:51 | 30.83004 | -81.77881 | 37870 ft | 427 kts | 346° |
| 2026-04-30 22:52 | 30.91933 | -81.78422 | 37866 ft | 427 kts | 346° |
| 2026-04-30 22:53 | 31.03801 | -81.79143 | 37877 ft | 428 kts | 346° |
| 2026-04-30 22:53 | 31.12716 | -81.79676 | 37863 ft | 428 kts | 346° |
| 2026-04-30 22:55 | 31.27622 | -81.80597 | 37901 ft | 429 kts | 346° |
| 2026-04-30 22:56 | 31.39468 | -81.81312 | 37881 ft | 427 kts | 346° |
| 2026-04-30 22:57 | 31.54324 | -81.82221 | 37939 ft | 428 kts | 345° |
| 2026-04-30 22:58 | 31.66233 | -81.82949 | 37876 ft | 428 kts | 345° |
| 2026-04-30 22:59 | 31.75069 | -81.83487 | 37853 ft | 415 kts | 345° |
| 2026-04-30 22:59 | 31.83641 | -81.84024 | 37861 ft | 412 kts | 345° |